Time;durP1;ratioP1;P1;durP2;ratioP2;P2;SDS_P1;SDS_P2;PMS_P1;PMS_P2;Temp;Humidity;BMP_temperature;BMP_pressure;BME280_temperature;BME280_humidity;BME280_pressure;Samples;Min_cycle;Max_cycle;Signal;HPM_P1;HPM_P2
2020/12/02 00:01:38;;;;;;;31.67;19.37;;;2.90;99.90;;;;;;5035847;28;20448;-69
2020/12/02 00:04:09;;;;;;;32.80;19.40;;;2.90;99.90;;;;;;5035251;28;20460;-69
2020/12/02 00:06:36;;;;;;;31.10;19.30;;;2.90;99.90;;;;;;5035280;28;20483;-69
2020/12/02 00:09:08;;;;;;;31.40;20.30;;;2.90;99.90;;;;;;5034924;28;20483;-69
2020/12/02 00:11:34;;;;;;;33.17;19.07;;;2.80;99.90;;;;;;5035170;28;20498;-69
2020/12/02 00:14:04;;;;;;;33.20;21.50;;;2.80;99.90;;;;;;5035048;28;20802;-69
2020/12/02 00:16:32;;;;;;;36.43;20.90;;;2.80;99.90;;;;;;5035219;28;20456;-69
2020/12/02 00:18:58;;;;;;;33.50;20.70;;;2.80;99.90;;;;;;5035090;28;20448;-70
2020/12/02 00:21:28;;;;;;;36.60;21.20;;;2.80;99.90;;;;;;5035190;28;20456;-70
2020/12/02 00:23:54;;;;;;;29.63;20.70;;;2.80;99.90;;;;;;5034981;28;20452;-69
2020/12/02 00:26:21;;;;;;;34.63;19.97;;;2.80;99.90;;;;;;5035146;28;20456;-68
2020/12/02 00:28:48;;;;;;;33.70;21.37;;;2.80;99.90;;;;;;5035183;28;20949;-69
2020/12/02 00:31:15;;;;;;;35.20;22.20;;;2.80;99.90;;;;;;5034888;28;20850;-70
2020/12/02 00:33:43;;;;;;;33.27;19.90;;;2.80;99.90;;;;;;5034973;28;20522;-69
2020/12/02 00:36:09;;;;;;;33.33;21.00;;;2.80;99.90;;;;;;5034918;28;20602;-68
2020/12/02 00:38:35;;;;;;;35.97;21.33;;;2.80;99.90;;;;;;5035006;28;20468;-69
2020/12/02 00:41:01;;;;;;;34.63;21.80;;;2.80;99.90;;;;;;5035091;28;20460;-69
2020/12/02 00:43:29;;;;;;;31.33;21.47;;;2.80;99.90;;;;;;5034810;28;20917;-68
2020/12/02 00:45:57;;;;;;;38.07;22.30;;;2.80;99.90;;;;;;5034913;28;20452;-69
2020/12/02 00:48:25;;;;;;;38.27;22.63;;;2.70;99.90;;;;;;5034733;28;20948;-69
2020/12/02 00:50:54;;;;;;;38.10;21.23;;;2.70;99.90;;;;;;5034714;28;20514;-68
2020/12/02 00:53:22;;;;;;;31.83;19.63;;;2.70;99.90;;;;;;5034759;28;20460;-69
2020/12/02 00:55:50;;;;;;;31.90;20.67;;;2.70;99.90;;;;;;5034676;28;20530;-68
2020/12/02 00:58:27;;;;;;;33.23;20.83;;;2.70;99.90;;;;;;5036626;28;20517;-69
2020/12/02 01:00:55;;;;;;;33.73;20.33;;;2.70;99.90;;;;;;5038658;28;20496;-70
2020/12/02 01:03:25;;;;;;;31.60;21.30;;;2.70;99.90;;;;;;5038768;28;20783;-68
2020/12/02 01:05:53;;;;;;;30.80;19.80;;;2.70;99.90;;;;;;5038327;28;20442;-68
2020/12/02 01:08:24;;;;;;;34.30;20.70;;;2.60;99.90;;;;;;5038447;28;20517;-68
2020/12/02 01:10:59;;;;;;;31.07;19.20;;;2.60;99.90;;;;;;5038463;28;20449;-69
2020/12/02 01:13:26;;;;;;;32.87;20.47;;;2.70;99.90;;;;;;5038681;28;20780;-69
2020/12/02 01:15:52;;;;;;;33.30;21.00;;;2.60;99.90;;;;;;5038812;28;20456;-69
2020/12/02 01:18:21;;;;;;;35.77;21.50;;;2.60;99.90;;;;;;5039470;28;20522;-70
2020/12/02 01:20:54;;;;;;;30.87;20.70;;;2.60;99.90;;;;;;5041323;28;20471;-69
2020/12/02 01:23:21;;;;;;;32.53;20.40;;;2.60;99.90;;;;;;5040827;28;20502;-68
2020/12/02 01:25:48;;;;;;;31.00;20.83;;;2.60;99.90;;;;;;5039724;28;20455;-69
2020/12/02 01:28:21;;;;;;;29.93;19.50;;;2.60;99.90;;;;;;5038795;28;20456;-69
2020/12/02 01:30:48;;;;;;;29.83;20.47;;;2.60;99.90;;;;;;5037952;28;20482;-68
2020/12/02 01:33:16;;;;;;;40.50;22.30;;;2.50;99.90;;;;;;5038861;28;20486;-69
2020/12/02 01:35:45;;;;;;;33.27;20.70;;;2.50;99.90;;;;;;5038433;28;20466;-69
2020/12/02 01:38:16;;;;;;;33.00;20.53;;;2.50;99.90;;;;;;5037874;28;20524;-69
2020/12/02 01:40:42;;;;;;;36.07;23.50;;;2.50;99.90;;;;;;5037895;28;20478;-67
2020/12/02 01:43:11;;;;;;;31.80;20.60;;;2.50;99.90;;;;;;5037914;28;20637;-69
2020/12/02 01:45:40;;;;;;;33.47;21.33;;;2.50;99.90;;;;;;5037625;28;20985;-69
2020/12/02 01:48:35;;;;;;;39.17;21.00;;;2.50;99.90;;;;;;5037872;28;20456;-68
2020/12/02 01:51:07;;;;;;;30.53;20.40;;;2.50;99.90;;;;;;5037374;28;20514;-69
2020/12/02 01:53:47;;;;;;;32.67;19.00;;;2.40;99.90;;;;;;5038125;28;20432;-69
2020/12/02 01:56:19;;;;;;;35.10;21.17;;;2.40;99.90;;;;;;5037648;28;20436;-69
2020/12/02 01:58:56;;;;;;;34.87;21.00;;;2.40;99.90;;;;;;5037759;28;20433;-70
2020/12/02 02:01:32;;;;;;;33.47;20.53;;;2.40;99.90;;;;;;5037691;28;20432;-68
2020/12/02 02:04:01;;;;;;;36.57;22.77;;;2.40;99.90;;;;;;5037567;28;20506;-70
2020/12/02 02:06:42;;;;;;;31.13;19.87;;;2.40;99.90;;;;;;5037419;28;20483;-68
2020/12/02 02:09:10;;;;;;;32.83;20.50;;;2.40;99.90;;;;;;5036159;28;20464;-69
2020/12/02 02:11:42;;;;;;;32.87;20.57;;;2.30;99.90;;;;;;5037397;28;20451;-68
2020/12/02 02:14:25;;;;;;;36.00;20.47;;;2.30;99.90;;;;;;5037620;28;20506;-69
2020/12/02 02:16:51;;;;;;;34.07;20.50;;;2.30;99.90;;;;;;5037325;28;20441;-69
2020/12/02 02:19:20;;;;;;;31.60;19.80;;;2.30;99.90;;;;;;5037588;28;20506;-68
2020/12/02 02:21:49;;;;;;;33.20;20.87;;;2.30;99.90;;;;;;5037261;28;20452;-68
2020/12/02 02:24:16;;;;;;;35.53;20.83;;;2.30;99.90;;;;;;5037213;28;20456;-68
2020/12/02 02:26:47;;;;;;;31.40;21.03;;;2.30;99.90;;;;;;5036737;28;20959;-68
2020/12/02 02:29:18;;;;;;;32.27;20.83;;;2.30;99.90;;;;;;5037501;28;20483;-68
2020/12/02 02:31:50;;;;;;;34.87;20.93;;;2.30;99.90;;;;;;5036955;28;20490;-68
2020/12/02 02:34:16;;;;;;;32.80;21.30;;;2.30;99.90;;;;;;5037136;28;20468;-68
2020/12/02 02:36:42;;;;;;;32.97;20.40;;;2.30;99.90;;;;;;5036931;28;20487;-68
2020/12/02 02:39:11;;;;;;;28.07;19.17;;;2.30;99.90;;;;;;5036601;28;20476;-68
2020/12/02 02:41:37;;;;;;;33.27;21.63;;;2.20;99.90;;;;;;5036964;28;20548;-68
2020/12/02 02:44:05;;;;;;;31.53;21.90;;;2.20;99.90;;;;;;5036881;28;20517;-68
2020/12/02 02:46:31;;;;;;;34.20;20.57;;;2.20;99.90;;;;;;5036756;28;20452;-69
2020/12/02 02:48:57;;;;;;;36.90;22.27;;;2.20;99.90;;;;;;5037173;28;20480;-69
2020/12/02 02:51:23;;;;;;;31.90;20.83;;;2.20;99.90;;;;;;5036974;28;20518;-68
2020/12/02 02:53:50;;;;;;;31.33;20.70;;;2.20;99.90;;;;;;5036552;28;20459;-68
2020/12/02 02:56:16;;;;;;;33.63;20.40;;;2.20;99.90;;;;;;5036972;28;20737;-68
2020/12/02 02:58:42;;;;;;;37.57;22.70;;;2.20;99.90;;;;;;5037587;28;20486;-68
2020/12/02 03:01:10;;;;;;;35.33;22.17;;;2.20;99.90;;;;;;5037008;28;20495;-68
2020/12/02 03:03:36;;;;;;;32.87;21.47;;;2.20;99.90;;;;;;5037106;28;20495;-68
2020/12/02 03:06:04;;;;;;;32.57;21.53;;;2.20;99.90;;;;;;5036781;28;20476;-69
2020/12/02 03:08:30;;;;;;;34.30;21.47;;;2.20;99.90;;;;;;5036091;28;20490;-68
2020/12/02 03:10:59;;;;;;;33.57;19.50;;;2.10;99.90;;;;;;5036138;28;20456;-68
2020/12/02 03:13:33;;;;;;;37.90;21.30;;;2.10;99.90;;;;;;5035911;28;20456;-68
2020/12/02 03:16:02;;;;;;;37.33;22.07;;;2.10;99.90;;;;;;5036540;28;20526;-68
2020/12/02 03:18:29;;;;;;;33.43;21.30;;;2.10;99.90;;;;;;5036258;28;20781;-68
2020/12/02 03:20:58;;;;;;;33.73;20.10;;;2.10;99.90;;;;;;5036657;28;20490;-68
2020/12/02 03:23:25;;;;;;;34.93;20.90;;;2.00;99.90;;;;;;5036888;28;20448;-68
2020/12/02 03:25:51;;;;;;;34.07;21.70;;;2.10;99.90;;;;;;5036790;28;20510;-67
2020/12/02 03:28:18;;;;;;;35.87;20.03;;;2.10;99.90;;;;;;5037014;28;20452;-67
2020/12/02 03:30:44;;;;;;;32.37;20.67;;;2.00;99.90;;;;;;5036942;28;20480;-68
2020/12/02 03:33:14;;;;;;;35.43;21.07;;;2.00;99.90;;;;;;5036015;28;20499;-68
2020/12/02 03:35:42;;;;;;;36.87;21.33;;;2.00;99.90;;;;;;5035904;28;20456;-69
2020/12/02 03:38:08;;;;;;;30.43;18.93;;;2.00;99.90;;;;;;5035721;28;20794;-68
2020/12/02 03:40:35;;;;;;;35.03;20.27;;;2.00;99.90;;;;;;5035902;28;20502;-69
2020/12/02 03:43:01;;;;;;;36.00;20.00;;;2.00;99.90;;;;;;5035718;28;20463;-67
2020/12/02 03:45:27;;;;;;;33.13;21.77;;;2.00;99.90;;;;;;5035692;28;20586;-68
2020/12/02 03:47:53;;;;;;;35.43;20.20;;;2.00;99.90;;;;;;5035824;28;20487;-68
2020/12/02 03:50:19;;;;;;;35.07;20.93;;;2.00;99.90;;;;;;5036339;28;20476;-68
2020/12/02 03:52:46;;;;;;;39.50;21.77;;;2.00;99.90;;;;;;5036628;28;20452;-67
2020/12/02 03:55:12;;;;;;;29.13;19.87;;;2.00;99.90;;;;;;5035992;28;20514;-69
2020/12/02 03:57:38;;;;;;;35.00;21.63;;;2.00;99.90;;;;;;5035500;28;20448;-67
2020/12/02 04:00:07;;;;;;;33.40;21.80;;;2.00;99.90;;;;;;5035461;28;20819;-67
2020/12/02 04:02:33;;;;;;;35.30;20.57;;;2.00;99.90;;;;;;5035390;28;20491;-68
2020/12/02 04:04:59;;;;;;;44.30;22.90;;;1.90;99.90;;;;;;5036113;28;20495;-68
2020/12/02 04:07:25;;;;;;;38.60;21.33;;;1.90;99.90;;;;;;5035249;28;20510;-67
2020/12/02 04:09:52;;;;;;;37.67;23.10;;;1.90;99.90;;;;;;5035426;28;20995;-67
2020/12/02 04:12:18;;;;;;;34.03;22.23;;;1.90;99.90;;;;;;5035103;28;20452;-69
2020/12/02 04:14:44;;;;;;;38.93;22.43;;;1.90;99.90;;;;;;5035216;28;20452;-69
2020/12/02 04:17:10;;;;;;;42.47;23.07;;;1.90;99.90;;;;;;5035188;28;20471;-68
2020/12/02 04:19:36;;;;;;;35.97;23.87;;;1.90;99.90;;;;;;5034815;28;20979;-67
2020/12/02 04:22:02;;;;;;;39.10;22.70;;;1.90;99.90;;;;;;5034720;28;20456;-70
2020/12/02 04:24:28;;;;;;;40.20;22.93;;;1.90;99.90;;;;;;5035129;28;20913;-69
2020/12/02 04:26:55;;;;;;;37.13;22.77;;;1.90;99.90;;;;;;5034797;28;20467;-67
2020/12/02 04:29:21;;;;;;;40.33;22.00;;;1.80;99.90;;;;;;5035141;28;20534;-67
2020/12/02 04:31:47;;;;;;;48.03;22.30;;;1.90;99.90;;;;;;5035072;28;20452;-66
2020/12/02 04:34:13;;;;;;;40.57;22.53;;;1.80;99.90;;;;;;5035118;28;20448;-67
2020/12/02 04:36:39;;;;;;;43.43;25.03;;;1.80;99.90;;;;;;5034951;28;20455;-67
2020/12/02 04:39:05;;;;;;;40.57;22.80;;;1.90;99.90;;;;;;5034362;28;20992;-67
2020/12/02 04:41:33;;;;;;;37.50;21.90;;;1.90;99.90;;;;;;5034704;28;20456;-68
2020/12/02 04:44:00;;;;;;;45.33;23.60;;;1.80;99.90;;;;;;5034788;28;20456;-68
2020/12/02 04:46:31;;;;;;;41.03;24.70;;;1.90;99.90;;;;;;5034644;28;20530;-67
2020/12/02 04:49:03;;;;;;;36.83;23.07;;;1.90;99.90;;;;;;5034766;28;20441;-67
2020/12/02 04:51:29;;;;;;;39.67;23.50;;;1.90;99.90;;;;;;5034782;28;20475;-68
2020/12/02 04:53:58;;;;;;;37.10;23.00;;;1.90;99.90;;;;;;5034807;28;20456;-68
2020/12/02 04:56:25;;;;;;;36.60;22.40;;;1.90;99.90;;;;;;5034616;28;20456;-67
2020/12/02 04:58:53;;;;;;;39.27;23.80;;;2.00;99.90;;;;;;5034552;28;20464;-67
2020/12/02 05:01:22;;;;;;;44.67;22.90;;;2.00;99.90;;;;;;5034623;28;20514;-67
2020/12/02 05:04:00;;;;;;;40.33;24.27;;;2.00;99.90;;;;;;5034378;28;20452;-67
2020/12/02 05:06:33;;;;;;;49.10;26.00;;;2.00;99.90;;;;;;5034066;28;20943;-67
2020/12/02 05:09:18;;;;;;;44.83;24.93;;;2.00;99.90;;;;;;5035199;28;20497;-68
2020/12/02 05:11:55;;;;;;;43.93;26.40;;;2.00;99.90;;;;;;5034500;28;20440;-67
2020/12/02 05:14:22;;;;;;;42.60;25.80;;;2.00;99.90;;;;;;5035397;28;20483;-68
2020/12/02 05:17:04;;;;;;;42.07;25.57;;;2.00;99.90;;;;;;5034420;28;20517;-68
2020/12/02 05:19:30;;;;;;;46.53;25.20;;;2.00;99.90;;;;;;5034824;28;20776;-68
2020/12/02 05:22:04;;;;;;;43.67;24.17;;;2.00;99.90;;;;;;5034359;28;20514;-67
2020/12/02 05:24:41;;;;;;;37.93;23.10;;;2.00;99.90;;;;;;5034476;28;20739;-68
2020/12/02 05:27:10;;;;;;;39.43;23.17;;;2.00;99.90;;;;;;5034252;28;20463;-68
2020/12/02 05:29:44;;;;;;;43.13;23.33;;;2.00;99.90;;;;;;5034421;28;20476;-68
2020/12/02 05:32:16;;;;;;;39.53;23.17;;;2.00;99.90;;;;;;5033903;28;20435;-69
2020/12/02 05:34:42;;;;;;;44.43;26.00;;;2.00;99.90;;;;;;5034601;28;20440;-68
2020/12/02 05:37:13;;;;;;;47.37;24.40;;;2.00;99.90;;;;;;5034372;28;20456;-68
2020/12/02 05:39:50;;;;;;;45.63;26.47;;;2.00;99.90;;;;;;5034193;28;20542;-68
2020/12/02 05:42:24;;;;;;;40.47;22.23;;;2.00;99.90;;;;;;5034208;28;20498;-69
2020/12/02 05:44:58;;;;;;;37.17;22.10;;;2.00;99.90;;;;;;5036014;28;20440;-69
2020/12/02 05:47:25;;;;;;;39.93;24.60;;;2.00;99.90;;;;;;5037692;28;20440;-69
2020/12/02 05:49:55;;;;;;;36.73;22.67;;;2.00;99.90;;;;;;5037726;28;20484;-69
2020/12/02 05:52:33;;;;;;;41.90;24.67;;;2.00;99.90;;;;;;5037707;28;20530;-69
2020/12/02 05:55:04;;;;;;;42.47;25.17;;;2.00;99.90;;;;;;5038036;28;20436;-69
2020/12/02 05:57:32;;;;;;;43.33;24.17;;;2.00;99.90;;;;;;5037883;28;20440;-69
2020/12/02 06:00:00;;;;;;;41.20;23.13;;;2.00;99.90;;;;;;5037646;28;20484;-69
2020/12/02 06:02:28;;;;;;;39.70;23.90;;;2.00;99.90;;;;;;5037470;28;20460;-69
2020/12/02 06:04:55;;;;;;;43.57;25.93;;;2.00;99.90;;;;;;5037652;28;20537;-69
2020/12/02 06:07:22;;;;;;;41.80;23.90;;;1.90;99.90;;;;;;5037480;28;20460;-68
2020/12/02 06:09:50;;;;;;;40.57;24.70;;;2.00;99.90;;;;;;5037607;28;20511;-69
2020/12/02 06:12:19;;;;;;;39.47;24.93;;;2.00;99.90;;;;;;5037602;28;20873;-70
2020/12/02 06:14:46;;;;;;;48.57;26.00;;;2.00;99.90;;;;;;5037630;28;20503;-69
2020/12/02 06:17:25;;;;;;;46.67;27.00;;;1.90;99.90;;;;;;5037215;28;20522;-69
2020/12/02 06:19:52;;;;;;;40.67;23.40;;;1.90;99.90;;;;;;5037583;28;20428;-70
2020/12/02 06:22:45;;;;;;;43.23;23.50;;;1.90;99.90;;;;;;5037156;28;20460;-69
2020/12/02 06:25:40;;;;;;;43.93;25.10;;;1.90;99.90;;;;;;5037456;28;20441;-68
2020/12/02 06:28:09;;;;;;;39.17;22.80;;;1.90;99.90;;;;;;5037303;28;20487;-69
2020/12/02 06:30:36;;;;;;;45.63;24.50;;;1.90;99.90;;;;;;5037013;28;20952;-68
2020/12/02 06:33:19;;;;;;;46.67;25.77;;;1.90;99.90;;;;;;5037572;28;20541;-69
2020/12/02 06:35:56;;;;;;;45.23;25.30;;;1.90;99.90;;;;;;5037487;28;20889;-69
2020/12/02 06:38:27;;;;;;;42.57;25.30;;;1.90;99.90;;;;;;5036964;28;20823;-68
2020/12/02 06:41:30;;;;;;;49.30;25.80;;;1.90;99.90;;;;;;5037261;28;20502;-68
2020/12/02 06:44:01;;;;;;;47.90;26.73;;;1.90;99.90;;;;;;5036964;28;20440;-69
2020/12/02 06:46:56;;;;;;;52.20;25.80;;;1.90;99.90;;;;;;5036823;28;20451;-68
2020/12/02 06:49:24;;;;;;;45.63;26.00;;;1.90;99.90;;;;;;5039703;28;20495;-70
2020/12/02 06:51:56;;;;;;;46.27;24.30;;;1.90;99.90;;;;;;5044990;28;20502;-60
2020/12/02 06:54:23;;;;;;;43.47;25.30;;;1.90;99.90;;;;;;5036785;28;20515;-59
2020/12/02 06:56:56;;;;;;;47.50;27.70;;;1.90;99.90;;;;;;5037358;28;20528;-70
2020/12/02 06:59:22;;;;;;;47.17;28.53;;;1.90;99.90;;;;;;5036621;28;20502;-69
2020/12/02 07:01:50;;;;;;;46.87;26.30;;;1.90;99.90;;;;;;5036555;28;20457;-69
2020/12/02 07:04:22;;;;;;;45.83;25.73;;;1.90;99.90;;;;;;5036497;28;20970;-68
2020/12/02 07:06:58;;;;;;;41.90;27.00;;;1.90;99.90;;;;;;5036315;28;20455;-70
2020/12/02 07:09:25;;;;;;;47.63;27.63;;;1.90;99.90;;;;;;5036829;28;20463;-68
2020/12/02 07:11:55;;;;;;;45.93;25.37;;;1.90;99.90;;;;;;5036021;28;20499;-70
2020/12/02 07:14:24;;;;;;;52.73;28.93;;;1.90;99.90;;;;;;5036419;28;20452;-69
2020/12/02 07:16:57;;;;;;;46.00;26.20;;;1.90;99.90;;;;;;5036315;28;20452;-59
2020/12/02 07:19:27;;;;;;;44.47;26.13;;;1.90;99.90;;;;;;5036372;28;20433;-69
2020/12/02 07:21:56;;;;;;;45.40;26.47;;;1.90;99.90;;;;;;5035645;28;20456;-69
2020/12/02 07:24:28;;;;;;;44.13;25.23;;;1.90;99.90;;;;;;5036040;28;20847;-60
2020/12/02 07:26:56;;;;;;;45.17;26.10;;;2.00;99.90;;;;;;5036490;28;20467;-60
2020/12/02 07:29:25;;;;;;;48.53;27.97;;;2.00;99.90;;;;;;5036253;28;20855;-60
2020/12/02 07:31:58;;;;;;;52.93;29.13;;;2.00;99.90;;;;;;5035977;28;20456;-60
2020/12/02 07:34:24;;;;;;;47.93;27.83;;;2.00;99.90;;;;;;5035380;28;20968;-61
2020/12/02 07:36:57;;;;;;;52.77;29.90;;;2.00;99.90;;;;;;5036546;28;20452;-60
2020/12/02 07:39:25;;;;;;;52.27;27.63;;;2.10;99.90;;;;;;5035618;28;20545;-58
2020/12/02 07:42:02;;;;;;;47.50;27.03;;;2.10;99.90;;;;;;5036177;28;20585;-59
2020/12/02 07:44:30;;;;;;;51.07;29.97;;;2.10;99.90;;;;;;5035973;28;20467;-60
2020/12/02 07:46:59;;;;;;;48.17;28.37;;;2.20;99.90;;;;;;5035889;28;20919;-68
2020/12/02 07:49:27;;;;;;;44.07;28.20;;;2.20;99.90;;;;;;5037068;28;20476;-70
2020/12/02 07:52:00;;;;;;;50.77;29.43;;;2.30;99.90;;;;;;5035555;28;20452;-60
2020/12/02 07:54:29;;;;;;;56.00;28.73;;;2.40;99.90;;;;;;5035308;28;20502;-69
2020/12/02 07:56:55;;;;;;;49.93;28.10;;;2.40;99.90;;;;;;5036182;28;20452;-69
2020/12/02 07:59:24;;;;;;;53.33;28.50;;;2.40;99.90;;;;;;5035135;28;20784;-69
2020/12/02 08:02:03;;;;;;;54.13;28.20;;;2.50;99.90;;;;;;5035228;28;20456;-69
2020/12/02 08:04:35;;;;;;;48.67;27.33;;;2.50;99.90;;;;;;5035231;28;20531;-68
2020/12/02 08:07:05;;;;;;;48.37;28.70;;;2.60;99.90;;;;;;5034335;28;20437;-69
2020/12/02 08:09:37;;;;;;;45.37;27.90;;;2.60;99.90;;;;;;5035179;28;20478;-69
2020/12/02 08:12:06;;;;;;;51.80;28.13;;;2.70;99.90;;;;;;5034818;28;20506;-69
2020/12/02 08:14:34;;;;;;;55.73;32.50;;;2.70;99.90;;;;;;5035045;28;20791;-69
2020/12/02 08:17:07;;;;;;;55.27;29.67;;;2.80;99.90;;;;;;5036525;28;20518;-58
2020/12/02 08:19:37;;;;;;;46.60;28.57;;;2.80;99.90;;;;;;5035857;28;20433;-59
2020/12/02 08:22:04;;;;;;;55.33;28.30;;;2.90;99.90;;;;;;5035397;28;20436;-59
2020/12/02 08:24:40;;;;;;;49.07;28.63;;;2.90;99.90;;;;;;5035727;28;20540;-60
2020/12/02 08:27:07;;;;;;;45.77;28.10;;;3.00;99.90;;;;;;5038175;28;20432;-61
2020/12/02 08:29:34;;;;;;;44.80;27.67;;;3.00;99.90;;;;;;5036187;28;20512;-62
2020/12/02 08:32:06;;;;;;;46.27;26.40;;;3.10;99.90;;;;;;5035554;28;20494;-60
2020/12/02 08:34:34;;;;;;;46.70;26.97;;;3.20;99.90;;;;;;5034925;28;20511;-59
2020/12/02 08:37:32;;;;;;;51.10;27.47;;;3.20;99.90;;;;;;5037411;28;20452;-60
2020/12/02 08:40:20;;;;;;;48.27;27.57;;;3.20;99.90;;;;;;5008374;28;20462;-60
2020/12/02 08:42:46;;;;;;;48.17;28.80;;;3.20;99.90;;;;;;5017710;28;20441;-60
2020/12/02 08:45:16;;;;;;;50.43;28.23;;;3.30;99.90;;;;;;5016158;28;20487;-58
2020/12/02 08:47:42;;;;;;;50.13;28.97;;;3.30;99.90;;;;;;5015427;28;20456;-60
2020/12/02 08:50:27;;;;;;;48.83;27.93;;;3.30;99.90;;;;;;5016409;28;20783;-59
2020/12/02 08:52:55;;;;;;;52.43;29.37;;;3.40;99.90;;;;;;5017724;28;20441;-59
2020/12/02 08:55:23;;;;;;;52.93;29.57;;;3.40;99.90;;;;;;5015351;28;20456;-60
2020/12/02 08:57:49;;;;;;;45.87;28.20;;;3.40;99.90;;;;;;5016188;28;20453;-59
2020/12/02 09:00:17;;;;;;;51.63;30.53;;;3.50;99.90;;;;;;5015179;28;20449;-59
2020/12/02 09:02:43;;;;;;;49.37;29.30;;;3.50;99.90;;;;;;5014924;28;20548;-61
2020/12/02 09:05:09;;;;;;;48.80;27.53;;;3.60;99.90;;;;;;5014515;28;20461;-60
2020/12/02 09:07:35;;;;;;;46.97;28.27;;;3.60;99.90;;;;;;5015005;28;20757;-60
2020/12/02 09:10:02;;;;;;;51.50;28.30;;;3.60;99.90;;;;;;5014783;28;20513;-58
2020/12/02 09:12:29;;;;;;;51.10;29.43;;;3.70;99.90;;;;;;5015181;28;20548;-60
2020/12/02 09:14:55;;;;;;;51.57;28.60;;;3.70;99.90;;;;;;5014605;28;20464;-60
2020/12/02 09:17:22;;;;;;;53.27;29.60;;;3.80;99.90;;;;;;5014256;28;20453;-60
2020/12/02 09:19:50;;;;;;;59.90;34.27;;;3.80;99.90;;;;;;5017724;28;20453;-59
2020/12/02 09:22:16;;;;;;;56.77;30.23;;;3.90;99.90;;;;;;5018722;28;20527;-60
2020/12/02 09:24:43;;;;;;;55.03;31.13;;;4.00;99.90;;;;;;5018484;28;20901;-60
2020/12/02 09:27:10;;;;;;;53.80;30.27;;;4.00;99.90;;;;;;5018042;28;20456;-60
2020/12/02 09:29:36;;;;;;;47.10;27.63;;;4.00;99.90;;;;;;5018124;28;20480;-60
2020/12/02 09:32:03;;;;;;;47.20;29.30;;;4.00;99.90;;;;;;5018124;28;20456;-59
2020/12/02 09:34:29;;;;;;;52.97;30.40;;;3.90;99.90;;;;;;5018024;28;20460;-60
2020/12/02 09:36:55;;;;;;;49.37;29.70;;;3.90;99.90;;;;;;5017863;28;20495;-59
2020/12/02 09:39:21;;;;;;;49.43;28.40;;;3.90;99.90;;;;;;5017848;28;20484;-60
2020/12/02 09:42:23;;;;;;;52.93;29.70;;;4.00;99.90;;;;;;5017352;28;20485;-59
2020/12/02 09:45:01;;;;;;;51.30;29.43;;;4.10;99.90;;;;;;4976422;28;20451;-60
2020/12/02 09:47:27;;;;;;;52.57;30.97;;;4.10;99.90;;;;;;5017528;28;20469;-59
2020/12/02 09:49:53;;;;;;;53.47;29.10;;;4.10;99.90;;;;;;5017760;28;20591;-60
2020/12/02 09:52:35;;;;;;;53.90;31.33;;;4.20;99.90;;;;;;5017700;28;20453;-60
2020/12/02 09:55:05;;;;;;;54.17;30.60;;;4.20;99.90;;;;;;5017860;28;20484;-59
2020/12/02 09:57:31;;;;;;;51.90;31.50;;;4.30;99.90;;;;;;5018578;28;20499;-59
2020/12/02 10:00:00;;;;;;;49.00;29.67;;;4.30;99.90;;;;;;5017194;28;20902;-60
2020/12/02 10:03:08;;;;;;;59.50;32.60;;;4.40;99.90;;;;;;5017501;28;20457;-60
2020/12/02 10:06:09;;;;;;;54.33;30.80;;;4.40;99.90;;;;;;5019890;28;20582;-60
2020/12/02 10:08:51;;;;;;;53.70;31.20;;;4.40;99.90;;;;;;5019908;28;20468;-60
2020/12/02 10:11:29;;;;;;;54.47;32.93;;;4.30;99.90;;;;;;5017417;28;20968;-60
2020/12/02 10:14:06;;;;;;;61.47;34.10;;;4.40;99.90;;;;;;5017724;28;20441;-59
2020/12/02 10:16:39;;;;;;;58.20;33.37;;;4.40;99.90;;;;;;5018788;28;20471;-60
2020/12/02 10:19:34;;;;;;;58.27;32.50;;;4.40;99.90;;;;;;5017267;28;20879;-60
2020/12/02 10:22:19;;;;;;;57.10;32.90;;;4.30;99.90;;;;;;5008433;28;20519;-59
2020/12/02 10:25:01;;;;;;;52.93;31.40;;;4.30;99.90;;;;;;5017091;28;20899;-59
2020/12/02 10:27:46;;;;;;;54.53;33.10;;;4.40;99.90;;;;;;5016876;28;20503;-59
2020/12/02 10:30:17;;;;;;;62.70;33.53;;;4.40;99.90;;;;;;5015921;28;20473;-60
2020/12/02 10:33:18;;;;;;;58.53;33.27;;;4.50;99.90;;;;;;5016841;28;20528;-60
2020/12/02 10:35:47;;;;;;;58.50;33.53;;;4.60;99.90;;;;;;5016835;28;20433;-60
2020/12/02 10:38:25;;;;;;;55.23;29.60;;;4.60;99.90;;;;;;5017212;28;20810;-60
2020/12/02 10:41:00;;;;;;;59.00;30.50;;;4.50;99.90;;;;;;5016487;28;20894;-59
2020/12/02 10:43:37;;;;;;;53.13;30.70;;;4.50;99.90;;;;;;5016650;28;20887;-59
2020/12/02 10:46:06;;;;;;;66.30;31.60;;;4.40;99.90;;;;;;5016704;28;20437;-60
2020/12/02 10:48:49;;;;;;;53.90;30.50;;;4.30;99.90;;;;;;5018127;28;20515;-60
2020/12/02 10:51:15;;;;;;;51.53;32.33;;;4.20;99.90;;;;;;5019573;28;20477;-59
2020/12/02 10:53:42;;;;;;;54.23;32.30;;;4.20;99.90;;;;;;5018685;28;20793;-60
2020/12/02 10:56:09;;;;;;;59.80;32.20;;;4.30;99.90;;;;;;5018101;28;20456;-59
2020/12/02 10:58:35;;;;;;;50.10;29.20;;;4.40;99.90;;;;;;5018600;28;20526;-61
2020/12/02 11:01:06;;;;;;;55.97;32.03;;;4.40;99.90;;;;;;5016781;28;20530;-60
2020/12/02 11:03:34;;;;;;;57.87;30.57;;;4.50;99.90;;;;;;5016606;28;20945;-60
2020/12/02 11:06:15;;;;;;;53.13;31.50;;;4.60;99.90;;;;;;5016945;28;20488;-60
2020/12/02 11:09:02;;;;;;;51.77;31.83;;;4.70;99.90;;;;;;5016883;28;20437;-60
2020/12/02 11:11:48;;;;;;;52.00;32.03;;;4.80;99.90;;;;;;5016371;28;20465;-59
2020/12/02 11:14:26;;;;;;;50.33;28.70;;;4.80;99.90;;;;;;5016295;28;20468;-59
2020/12/02 11:17:02;;;;;;;51.03;28.20;;;4.90;99.90;;;;;;5016256;28;20442;-60
2020/12/02 11:19:45;;;;;;;51.67;30.13;;;4.90;99.90;;;;;;5016341;28;20437;-60
2020/12/02 11:22:33;;;;;;;45.80;27.73;;;5.00;99.90;;;;;;5015735;28;20441;-60
2020/12/02 11:25:22;;;;;;;50.27;29.50;;;5.10;99.90;;;;;;5016152;28;20503;-60
2020/12/02 11:27:48;;;;;;;52.40;29.40;;;5.20;99.90;;;;;;5016158;28;20503;-59
2020/12/02 11:30:22;;;;;;;49.67;29.53;;;5.20;99.90;;;;;;5015647;28;20547;-61
2020/12/02 11:33:10;;;;;;;46.40;27.10;;;5.20;99.90;;;;;;5016554;28;20818;-60
2020/12/02 11:36:16;;;;;;;45.30;26.27;;;5.20;99.90;;;;;;5015867;28;20442;-60
2020/12/02 11:38:57;;;;;;;43.10;25.50;;;5.20;99.90;;;;;;5015379;28;20539;-60
2020/12/02 11:41:29;;;;;;;43.83;28.20;;;5.30;99.90;;;;;;5016314;28;20878;-61
2020/12/02 11:44:02;;;;;;;48.30;28.13;;;5.30;99.90;;;;;;5015757;28;20528;-59
2020/12/02 11:46:31;;;;;;;46.17;27.07;;;5.40;99.90;;;;;;5015747;28;20438;-61
2020/12/02 11:49:06;;;;;;;44.27;28.10;;;5.40;99.90;;;;;;5016858;28;20456;-60
2020/12/02 11:51:40;;;;;;;45.63;28.27;;;5.30;99.90;;;;;;5015585;28;20468;-69
2020/12/02 11:54:10;;;;;;;45.70;25.70;;;5.40;99.90;;;;;;5015724;28;20879;-69
2020/12/02 11:56:39;;;;;;;46.20;27.00;;;5.40;99.90;;;;;;5015403;28;20441;-69
2020/12/02 11:59:08;;;;;;;44.80;28.07;;;5.50;99.90;;;;;;5015437;28;20457;-69
2020/12/02 12:01:42;;;;;;;45.27;27.10;;;5.50;99.90;;;;;;5015793;28;20454;-69
2020/12/02 12:04:20;;;;;;;45.43;27.17;;;5.60;99.90;;;;;;5015834;28;20476;-70
2020/12/02 12:06:50;;;;;;;49.27;28.10;;;5.50;99.90;;;;;;5015420;28;20473;-70
2020/12/02 12:09:21;;;;;;;44.77;26.13;;;5.50;99.90;;;;;;5015626;28;20492;-69
2020/12/02 12:11:47;;;;;;;44.70;27.60;;;5.50;99.90;;;;;;5015537;28;20465;-69
2020/12/02 12:14:24;;;;;;;44.70;25.50;;;5.50;99.90;;;;;;5015297;28;20523;-69
2020/12/02 12:17:01;;;;;;;42.80;26.57;;;5.60;99.90;;;;;;5015580;28;20898;-69
2020/12/02 12:19:41;;;;;;;42.13;26.20;;;5.60;99.90;;;;;;5015928;28;20441;-70
2020/12/02 12:22:19;;;;;;;47.97;26.37;;;5.70;99.90;;;;;;5015143;28;20892;-69
2020/12/02 12:24:48;;;;;;;45.13;26.30;;;5.70;99.90;;;;;;5015005;28;20441;-70
2020/12/02 12:27:16;;;;;;;40.00;25.37;;;5.60;99.90;;;;;;5015084;28;20527;-69
2020/12/02 12:29:42;;;;;;;37.23;23.67;;;5.40;99.90;;;;;;5015007;28;20842;-70
2020/12/02 12:32:14;;;;;;;36.97;23.90;;;5.30;99.90;;;;;;5014942;28;20934;-69
2020/12/02 12:34:47;;;;;;;38.10;24.47;;;5.20;99.90;;;;;;5015025;28;20441;-69
2020/12/02 12:37:18;;;;;;;40.37;25.60;;;5.20;99.90;;;;;;5014844;28;20503;-69
2020/12/02 12:39:48;;;;;;;43.43;24.33;;;5.20;99.90;;;;;;5014862;28;20576;-70
2020/12/02 12:42:19;;;;;;;39.60;25.50;;;5.20;99.90;;;;;;5015046;28;20845;-70
2020/12/02 12:44:47;;;;;;;43.10;26.10;;;5.20;99.90;;;;;;5014843;28;20441;-69
2020/12/02 12:47:19;;;;;;;42.70;25.30;;;5.30;99.90;;;;;;5014942;28;20528;-69
2020/12/02 12:49:46;;;;;;;62.27;31.17;;;5.40;99.90;;;;;;5014809;28;20452;-70
2020/12/02 12:52:15;;;;;;;41.20;23.80;;;5.60;99.90;;;;;;5015312;28;20493;-68
2020/12/02 12:54:42;;;;;;;39.17;23.60;;;5.60;99.90;;;;;;5017787;28;20453;-60
2020/12/02 12:57:14;;;;;;;46.03;25.60;;;5.70;99.90;;;;;;5018683;28;20456;-60